sensor_id;sensor_type;location;lat;lon;timestamp;pressure;altitude;pressure_sealevel;temperature;humidity
64967;BME280;51710;38.732;-121.358;2023-02-18T00:01:21;101286.56;;;17.16;31.57
64967;BME280;51710;38.732;-121.358;2023-02-18T00:03:49;101282.41;;;17.14;30.81
64967;BME280;51710;38.732;-121.358;2023-02-18T00:06:21;101282.75;;;17.11;31.99
64967;BME280;51710;38.732;-121.358;2023-02-18T00:08:49;101282.22;;;17.15;31.30
64967;BME280;51710;38.732;-121.358;2023-02-18T00:11:17;101266.59;;;17.11;31.97
64967;BME280;51710;38.732;-121.358;2023-02-18T00:13:52;101272.16;;;17.09;31.90
64967;BME280;51710;38.732;-121.358;2023-02-18T00:16:19;101265.66;;;17.04;31.72
64967;BME280;51710;38.732;-121.358;2023-02-18T00:18:47;101277.28;;;17.04;31.39
64967;BME280;51710;38.732;-121.358;2023-02-18T00:21:14;101274.59;;;17.04;31.60
64967;BME280;51710;38.732;-121.358;2023-02-18T00:23:41;101274.97;;;17.01;31.59
64967;BME280;51710;38.732;-121.358;2023-02-18T00:26:14;101269.13;;;16.98;32.84
64967;BME280;51710;38.732;-121.358;2023-02-18T00:28:41;101261.22;;;16.96;33.74
64967;BME280;51710;38.732;-121.358;2023-02-18T00:31:10;101260.31;;;16.89;33.24
64967;BME280;51710;38.732;-121.358;2023-02-18T00:33:37;101272.25;;;16.86;33.07
64967;BME280;51710;38.732;-121.358;2023-02-18T00:36:05;101267.25;;;16.83;32.87
64967;BME280;51710;38.732;-121.358;2023-02-18T00:38:32;101265.47;;;16.76;33.84
64967;BME280;51710;38.732;-121.358;2023-02-18T00:40:59;101265.19;;;16.71;33.54
64967;BME280;51710;38.732;-121.358;2023-02-18T00:43:26;101263.69;;;16.68;33.92
64967;BME280;51710;38.732;-121.358;2023-02-18T00:45:52;101259.53;;;16.66;34.06
64967;BME280;51710;38.732;-121.358;2023-02-18T00:48:19;101257.41;;;16.61;33.56
64967;BME280;51710;38.732;-121.358;2023-02-18T00:50:46;101253.59;;;16.56;33.76
64967;BME280;51710;38.732;-121.358;2023-02-18T00:53:12;101250.94;;;16.48;33.29
64967;BME280;51710;38.732;-121.358;2023-02-18T00:55:40;101263.22;;;16.42;33.97
64967;BME280;51710;38.732;-121.358;2023-02-18T00:58:07;101264.53;;;16.32;34.33
64967;BME280;51710;38.732;-121.358;2023-02-18T01:00:33;101264.28;;;16.19;34.76
64967;BME280;51710;38.732;-121.358;2023-02-18T01:03:00;101264.38;;;16.11;34.53
64967;BME280;51710;38.732;-121.358;2023-02-18T01:05:26;101261.34;;;16.06;34.38
64967;BME280;51710;38.732;-121.358;2023-02-18T01:07:53;101257.91;;;15.97;34.16
64967;BME280;51710;38.732;-121.358;2023-02-18T01:10:20;101261.50;;;15.90;34.13
64967;BME280;51710;38.732;-121.358;2023-02-18T01:12:47;101257.84;;;15.83;34.83
64967;BME280;51710;38.732;-121.358;2023-02-18T01:15:15;101260.38;;;15.76;34.66
64967;BME280;51710;38.732;-121.358;2023-02-18T01:17:42;101271.38;;;15.66;34.46
64967;BME280;51710;38.732;-121.358;2023-02-18T01:20:09;101263.69;;;15.55;35.03
64967;BME280;51710;38.732;-121.358;2023-02-18T01:22:36;101264.41;;;15.49;34.75
64967;BME280;51710;38.732;-121.358;2023-02-18T01:25:03;101267.97;;;15.42;34.47
64967;BME280;51710;38.732;-121.358;2023-02-18T01:27:29;101270.66;;;15.34;35.22
64967;BME280;51710;38.732;-121.358;2023-02-18T01:29:55;101279.94;;;15.23;35.55
64967;BME280;51710;38.732;-121.358;2023-02-18T01:32:22;101275.59;;;15.14;35.59
64967;BME280;51710;38.732;-121.358;2023-02-18T01:34:49;101267.09;;;15.03;35.27
64967;BME280;51710;38.732;-121.358;2023-02-18T01:37:15;101263.94;;;14.91;35.66
64967;BME280;51710;38.732;-121.358;2023-02-18T01:39:44;101266.66;;;14.83;35.72
64967;BME280;51710;38.732;-121.358;2023-02-18T01:42:25;101265.66;;;14.76;35.29
64967;BME280;51710;38.732;-121.358;2023-02-18T01:44:52;101266.31;;;14.70;35.21
64967;BME280;51710;38.732;-121.358;2023-02-18T01:47:19;101263.31;;;14.65;35.03
64967;BME280;51710;38.732;-121.358;2023-02-18T01:49:51;101261.47;;;14.57;35.06
64967;BME280;51710;38.732;-121.358;2023-02-18T01:52:22;101258.81;;;14.49;34.97
64967;BME280;51710;38.732;-121.358;2023-02-18T01:54:51;101260.31;;;14.44;34.76
64967;BME280;51710;38.732;-121.358;2023-02-18T01:57:24;101260.34;;;14.36;35.18
64967;BME280;51710;38.732;-121.358;2023-02-18T01:59:55;101264.88;;;14.27;35.05
64967;BME280;51710;38.732;-121.358;2023-02-18T02:02:25;101259.63;;;14.18;35.07
64967;BME280;51710;38.732;-121.358;2023-02-18T02:04:55;101251.94;;;14.07;35.63
64967;BME280;51710;38.732;-121.358;2023-02-18T02:07:24;101263.66;;;13.98;36.23
64967;BME280;51710;38.732;-121.358;2023-02-18T02:09:52;101261.97;;;13.89;37.19
64967;BME280;51710;38.732;-121.358;2023-02-18T02:15:23;101266.88;;;13.51;36.98
64967;BME280;51710;38.732;-121.358;2023-02-18T02:18:16;101270.00;;;13.31;37.95
64967;BME280;51710;38.732;-121.358;2023-02-18T02:21:02;101268.59;;;13.11;37.86
64967;BME280;51710;38.732;-121.358;2023-02-18T02:34:42;101274.22;;;12.13;39.20
64967;BME280;51710;38.732;-121.358;2023-02-18T02:37:21;101274.69;;;12.09;39.91
64967;BME280;51710;38.732;-121.358;2023-02-18T02:48:21;101275.84;;;11.62;40.51
64967;BME280;51710;38.732;-121.358;2023-02-18T02:51:34;101275.28;;;11.41;40.68
64967;BME280;51710;38.732;-121.358;2023-02-18T02:54:19;101270.44;;;11.26;41.15
64967;BME280;51710;38.732;-121.358;2023-02-18T02:56:46;101280.63;;;11.13;41.19
64967;BME280;51710;38.732;-121.358;2023-02-18T02:59:18;101282.06;;;10.98;41.42
64967;BME280;51710;38.732;-121.358;2023-02-18T03:02:02;101279.59;;;10.87;41.39
64967;BME280;51710;38.732;-121.358;2023-02-18T03:04:53;101280.47;;;10.78;42.33
64967;BME280;51710;38.732;-121.358;2023-02-18T03:13:46;101282.22;;;10.51;43.05
64967;BME280;51710;38.732;-121.358;2023-02-18T03:16:29;101274.94;;;10.43;42.96
64967;BME280;51710;38.732;-121.358;2023-02-18T03:21:35;101266.38;;;10.40;43.01
64967;BME280;51710;38.732;-121.358;2023-02-18T03:24:19;101272.16;;;10.35;43.23
64967;BME280;51710;38.732;-121.358;2023-02-18T03:27:02;101274.66;;;10.27;43.52
64967;BME280;51710;38.732;-121.358;2023-02-18T03:29:32;101278.63;;;10.23;43.54
64967;BME280;51710;38.732;-121.358;2023-02-18T03:32:03;101271.75;;;10.11;43.80
64967;BME280;51710;38.732;-121.358;2023-02-18T03:34:35;101277.47;;;9.97;44.67
64967;BME280;51710;38.732;-121.358;2023-02-18T03:37:05;101276.88;;;9.84;44.86
64967;BME280;51710;38.732;-121.358;2023-02-18T03:39:36;101272.66;;;9.72;45.12
64967;BME280;51710;38.732;-121.358;2023-02-18T03:42:05;101272.41;;;9.65;45.91
64967;BME280;51710;38.732;-121.358;2023-02-18T03:44:32;101278.81;;;9.63;45.63
64967;BME280;51710;38.732;-121.358;2023-02-18T03:46:58;101271.81;;;9.62;45.80
64967;BME280;51710;38.732;-121.358;2023-02-18T03:49:25;101277.44;;;9.59;45.84
64967;BME280;51710;38.732;-121.358;2023-02-18T03:51:52;101275.31;;;9.53;45.67
64967;BME280;51710;38.732;-121.358;2023-02-18T03:54:18;101275.72;;;9.48;45.59
64967;BME280;51710;38.732;-121.358;2023-02-18T03:56:45;101278.50;;;9.47;46.14
64967;BME280;51710;38.732;-121.358;2023-02-18T03:59:12;101271.78;;;9.43;46.39
64967;BME280;51710;38.732;-121.358;2023-02-18T04:01:39;101272.03;;;9.40;46.38
64967;BME280;51710;38.732;-121.358;2023-02-18T04:04:05;101273.44;;;9.34;46.31
64967;BME280;51710;38.732;-121.358;2023-02-18T04:06:32;101271.47;;;9.27;46.37
64967;BME280;51710;38.732;-121.358;2023-02-18T04:08:58;101277.06;;;9.24;46.51
64967;BME280;51710;38.732;-121.358;2023-02-18T04:11:25;101265.81;;;9.10;47.00
64967;BME280;51710;38.732;-121.358;2023-02-18T04:13:51;101275.41;;;9.02;47.67
64967;BME280;51710;38.732;-121.358;2023-02-18T04:16:17;101278.13;;;8.81;47.87
64967;BME280;51710;38.732;-121.358;2023-02-18T04:18:44;101269.34;;;8.60;48.31
64967;BME280;51710;38.732;-121.358;2023-02-18T04:21:10;101279.59;;;8.44;49.15
64967;BME280;51710;38.732;-121.358;2023-02-18T04:23:36;101274.00;;;8.27;49.39
64967;BME280;51710;38.732;-121.358;2023-02-18T04:26:06;101272.75;;;8.10;48.96
64967;BME280;51710;38.732;-121.358;2023-02-18T04:28:32;101275.72;;;7.96;49.09
64967;BME280;51710;38.732;-121.358;2023-02-18T04:30:59;101271.41;;;7.84;49.33
64967;BME280;51710;38.732;-121.358;2023-02-18T04:33:25;101274.34;;;7.70;50.09
64967;BME280;51710;38.732;-121.358;2023-02-18T04:35:51;101278.22;;;7.66;49.82
64967;BME280;51710;38.732;-121.358;2023-02-18T04:38:18;101270.41;;;7.64;49.87
64967;BME280;51710;38.732;-121.358;2023-02-18T04:40:44;101276.53;;;7.65;51.08
64967;BME280;51710;38.732;-121.358;2023-02-18T04:43:10;101275.09;;;7.61;50.85
64967;BME280;51710;38.732;-121.358;2023-02-18T04:45:37;101281.84;;;7.65;51.17
64967;BME280;51710;38.732;-121.358;2023-02-18T04:48:03;101279.91;;;7.67;51.00
64967;BME280;51710;38.732;-121.358;2023-02-18T04:50:30;101279.78;;;7.68;50.60
64967;BME280;51710;38.732;-121.358;2023-02-18T04:52:56;101284.97;;;7.70;50.86
64967;BME280;51710;38.732;-121.358;2023-02-18T04:55:23;101282.19;;;7.71;50.90
64967;BME280;51710;38.732;-121.358;2023-02-18T04:57:51;101277.72;;;7.72;51.38
64967;BME280;51710;38.732;-121.358;2023-02-18T05:00:19;101288.34;;;7.72;51.21
64967;BME280;51710;38.732;-121.358;2023-02-18T05:02:46;101287.97;;;7.65;50.76
64967;BME280;51710;38.732;-121.358;2023-02-18T05:05:13;101289.34;;;7.60;51.46
64967;BME280;51710;38.732;-121.358;2023-02-18T05:07:40;101288.28;;;7.51;51.72
64967;BME280;51710;38.732;-121.358;2023-02-18T05:10:09;101294.91;;;7.46;51.67
64967;BME280;51710;38.732;-121.358;2023-02-18T05:12:36;101286.94;;;7.46;51.20
64967;BME280;51710;38.732;-121.358;2023-02-18T05:15:03;101288.63;;;7.47;51.47
64967;BME280;51710;38.732;-121.358;2023-02-18T05:17:29;101293.31;;;7.43;51.35
64967;BME280;51710;38.732;-121.358;2023-02-18T05:19:55;101292.97;;;7.37;51.77
64967;BME280;51710;38.732;-121.358;2023-02-18T05:22:21;101298.28;;;7.37;51.43
64967;BME280;51710;38.732;-121.358;2023-02-18T05:24:48;101291.78;;;7.41;51.38
64967;BME280;51710;38.732;-121.358;2023-02-18T05:27:14;101293.72;;;7.39;51.74
64967;BME280;51710;38.732;-121.358;2023-02-18T05:29:40;101303.22;;;7.30;51.88
64967;BME280;51710;38.732;-121.358;2023-02-18T05:32:07;101307.81;;;7.17;52.00
64967;BME280;51710;38.732;-121.358;2023-02-18T05:34:33;101311.28;;;7.07;52.67
64967;BME280;51710;38.732;-121.358;2023-02-18T05:36:59;101305.66;;;7.00;53.12
64967;BME280;51710;38.732;-121.358;2023-02-18T05:39:26;101313.72;;;6.99;52.61
64967;BME280;51710;38.732;-121.358;2023-02-18T05:41:52;101314.44;;;7.01;53.08
64967;BME280;51710;38.732;-121.358;2023-02-18T05:44:19;101306.25;;;7.04;52.58
64967;BME280;51710;38.732;-121.358;2023-02-18T05:47:00;101319.00;;;7.10;53.02
64967;BME280;51710;38.732;-121.358;2023-02-18T05:49:28;101310.31;;;7.19;53.01
64967;BME280;51710;38.732;-121.358;2023-02-18T05:51:55;101313.22;;;7.27;52.87
64967;BME280;51710;38.732;-121.358;2023-02-18T05:54:22;101323.56;;;7.30;53.02
64967;BME280;51710;38.732;-121.358;2023-02-18T05:56:49;101308.63;;;7.29;52.82
64967;BME280;51710;38.732;-121.358;2023-02-18T05:59:16;101317.28;;;7.31;52.30
64967;BME280;51710;38.732;-121.358;2023-02-18T06:01:43;101316.56;;;7.29;52.41
64967;BME280;51710;38.732;-121.358;2023-02-18T06:04:10;101312.72;;;7.33;52.61
64967;BME280;51710;38.732;-121.358;2023-02-18T06:06:36;101322.84;;;7.39;52.49
64967;BME280;51710;38.732;-121.358;2023-02-18T06:09:04;101320.66;;;7.44;52.47
64967;BME280;51710;38.732;-121.358;2023-02-18T06:11:34;101324.38;;;7.52;52.57
64967;BME280;51710;38.732;-121.358;2023-02-18T06:14:02;101321.63;;;7.54;52.46
64967;BME280;51710;38.732;-121.358;2023-02-18T06:16:29;101316.44;;;7.52;52.92
64967;BME280;51710;38.732;-121.358;2023-02-18T06:18:59;101318.09;;;7.53;53.27
64967;BME280;51710;38.732;-121.358;2023-02-18T06:21:32;101311.72;;;7.56;52.95
64967;BME280;51710;38.732;-121.358;2023-02-18T06:24:00;101322.81;;;7.61;53.09
64967;BME280;51710;38.732;-121.358;2023-02-18T06:26:28;101318.94;;;7.65;52.95
64967;BME280;51710;38.732;-121.358;2023-02-18T06:28:59;101320.63;;;7.66;53.38
64967;BME280;51710;38.732;-121.358;2023-02-18T06:31:32;101318.69;;;7.68;53.57
64967;BME280;51710;38.732;-121.358;2023-02-18T06:34:00;101323.88;;;7.69;53.39
64967;BME280;51710;38.732;-121.358;2023-02-18T06:36:26;101322.91;;;7.70;53.64
64967;BME280;51710;38.732;-121.358;2023-02-18T06:38:52;101317.63;;;7.70;53.90
64967;BME280;51710;38.732;-121.358;2023-02-18T06:41:22;101319.28;;;7.71;53.70
64967;BME280;51710;38.732;-121.358;2023-02-18T06:43:48;101320.13;;;7.72;53.48
64967;BME280;51710;38.732;-121.358;2023-02-18T06:46:14;101327.97;;;7.73;53.71
64967;BME280;51710;38.732;-121.358;2023-02-18T06:48:41;101330.75;;;7.72;53.91
64967;BME280;51710;38.732;-121.358;2023-02-18T06:51:07;101333.53;;;7.70;54.48
64967;BME280;51710;38.732;-121.358;2023-02-18T06:53:33;101334.47;;;7.69;54.11
64967;BME280;51710;38.732;-121.358;2023-02-18T06:56:00;101335.44;;;7.68;54.56
64967;BME280;51710;38.732;-121.358;2023-02-18T06:58:26;101342.53;;;7.68;54.14
64967;BME280;51710;38.732;-121.358;2023-02-18T07:00:53;101346.41;;;7.64;54.78
64967;BME280;51710;38.732;-121.358;2023-02-18T07:03:19;101349.31;;;7.61;54.63
64967;BME280;51710;38.732;-121.358;2023-02-18T07:05:45;101351.09;;;7.60;55.04
64967;BME280;51710;38.732;-121.358;2023-02-18T07:08:12;101351.09;;;7.60;54.80
64967;BME280;51710;38.732;-121.358;2023-02-18T07:10:38;101359.19;;;7.59;54.90
64967;BME280;51710;38.732;-121.358;2023-02-18T07:13:04;101358.34;;;7.58;54.63
64967;BME280;51710;38.732;-121.358;2023-02-18T07:15:31;101362.94;;;7.56;55.12
64967;BME280;51710;38.732;-121.358;2023-02-18T07:17:57;101355.22;;;7.53;54.74
64967;BME280;51710;38.732;-121.358;2023-02-18T07:20:24;101363.41;;;7.50;54.78
64967;BME280;51710;38.732;-121.358;2023-02-18T07:22:51;101362.22;;;7.43;55.57
64967;BME280;51710;38.732;-121.358;2023-02-18T07:25:18;101360.53;;;7.42;55.22
64967;BME280;51710;38.732;-121.358;2023-02-18T07:27:45;101360.53;;;7.42;55.35
64967;BME280;51710;38.732;-121.358;2023-02-18T07:30:12;101361.59;;;7.40;55.46
64967;BME280;51710;38.732;-121.358;2023-02-18T07:32:38;101367.41;;;7.34;55.71
64967;BME280;51710;38.732;-121.358;2023-02-18T07:35:05;101363.56;;;7.27;55.37
64967;BME280;51710;38.732;-121.358;2023-02-18T07:37:32;101371.03;;;7.22;55.48
64967;BME280;51710;38.732;-121.358;2023-02-18T07:39:58;101375.59;;;7.20;55.42
64967;BME280;51710;38.732;-121.358;2023-02-18T07:42:25;101366.06;;;7.17;55.32
64967;BME280;51710;38.732;-121.358;2023-02-18T07:44:51;101368.84;;;7.16;56.12
64967;BME280;51710;38.732;-121.358;2023-02-18T07:47:17;101362.09;;;7.12;55.54
64967;BME280;51710;38.732;-121.358;2023-02-18T07:49:45;101371.84;;;7.11;55.72
64967;BME280;51710;38.732;-121.358;2023-02-18T07:52:12;101363.06;;;7.11;55.74
64967;BME280;51710;38.732;-121.358;2023-02-18T07:54:38;101370.28;;;7.09;55.81
64967;BME280;51710;38.732;-121.358;2023-02-18T07:57:05;101379.88;;;7.10;56.08
64967;BME280;51710;38.732;-121.358;2023-02-18T07:59:31;101373.16;;;7.06;56.31
64967;BME280;51710;38.732;-121.358;2023-02-18T08:01:58;101373.28;;;7.04;56.27
64967;BME280;51710;38.732;-121.358;2023-02-18T08:04:24;101368.09;;;7.03;56.33
64967;BME280;51710;38.732;-121.358;2023-02-18T08:06:50;101368.34;;;7.00;56.39
64967;BME280;51710;38.732;-121.358;2023-02-18T08:09:17;101373.63;;;7.00;56.18
64967;BME280;51710;38.732;-121.358;2023-02-18T08:11:44;101366.66;;;6.99;56.25
64967;BME280;51710;38.732;-121.358;2023-02-18T08:14:10;101371.09;;;6.98;56.41
64967;BME280;51710;38.732;-121.358;2023-02-18T08:16:37;101363.28;;;6.97;56.20
64967;BME280;51710;38.732;-121.358;2023-02-18T08:19:03;101375.66;;;6.96;56.50
64967;BME280;51710;38.732;-121.358;2023-02-18T08:21:30;101372.06;;;6.97;56.78
64967;BME280;51710;38.732;-121.358;2023-02-18T08:23:57;101379.16;;;6.97;56.94
64967;BME280;51710;38.732;-121.358;2023-02-18T08:26:24;101362.56;;;6.95;56.20
64967;BME280;51710;38.732;-121.358;2023-02-18T08:28:50;101381.94;;;6.95;56.84
64967;BME280;51710;38.732;-121.358;2023-02-18T08:31:21;101388.09;;;6.96;56.92
64967;BME280;51710;38.732;-121.358;2023-02-18T08:33:48;101390.00;;;6.94;56.42
64967;BME280;51710;38.732;-121.358;2023-02-18T08:36:14;101388.28;;;6.93;56.56
64967;BME280;51710;38.732;-121.358;2023-02-18T08:38:41;101376.03;;;6.92;56.49
64967;BME280;51710;38.732;-121.358;2023-02-18T08:41:07;101379.63;;;6.91;56.33
64967;BME280;51710;38.732;-121.358;2023-02-18T08:43:34;101379.88;;;6.88;56.69
64967;BME280;51710;38.732;-121.358;2023-02-18T08:46:01;101381.06;;;6.83;56.45
64967;BME280;51710;38.732;-121.358;2023-02-18T08:48:28;101382.28;;;6.79;56.76
64967;BME280;51710;38.732;-121.358;2023-02-18T08:50:54;101377.19;;;6.76;57.25
64967;BME280;51710;38.732;-121.358;2023-02-18T08:53:21;101373.84;;;6.74;57.07
64967;BME280;51710;38.732;-121.358;2023-02-18T08:55:47;101374.06;;;6.71;56.88
64967;BME280;51710;38.732;-121.358;2023-02-18T08:58:14;101379.34;;;6.71;57.27
64967;BME280;51710;38.732;-121.358;2023-02-18T09:00:44;101377.56;;;6.72;56.94
64967;BME280;51710;38.732;-121.358;2023-02-18T09:03:12;101380.31;;;6.70;57.38
64967;BME280;51710;38.732;-121.358;2023-02-18T09:05:39;101384.63;;;6.71;57.33
64967;BME280;51710;38.732;-121.358;2023-02-18T09:08:06;101379.34;;;6.71;57.11
64967;BME280;51710;38.732;-121.358;2023-02-18T09:10:32;101375.03;;;6.70;57.17
64967;BME280;51710;38.732;-121.358;2023-02-18T09:12:59;101373.31;;;6.69;56.97
64967;BME280;51710;38.732;-121.358;2023-02-18T09:15:25;101374.28;;;6.68;57.44
64967;BME280;51710;38.732;-121.358;2023-02-18T09:17:52;101372.63;;;6.67;57.09
64967;BME280;51710;38.732;-121.358;2023-02-18T09:20:18;101369.00;;;6.68;57.19
64967;BME280;51710;38.732;-121.358;2023-02-18T09:22:44;101376.09;;;6.68;56.71
64967;BME280;51710;38.732;-121.358;2023-02-18T09:25:11;101372.63;;;6.67;56.66
64967;BME280;51710;38.732;-121.358;2023-02-18T09:27:37;101375.34;;;6.66;56.60
64967;BME280;51710;38.732;-121.358;2023-02-18T09:30:04;101381.50;;;6.66;56.69
64967;BME280;51710;38.732;-121.358;2023-02-18T09:32:31;101381.63;;;6.65;56.92
64967;BME280;51710;38.732;-121.358;2023-02-18T09:34:57;101374.53;;;6.65;56.73
64967;BME280;51710;38.732;-121.358;2023-02-18T09:37:23;101385.25;;;6.64;56.94
64967;BME280;51710;38.732;-121.358;2023-02-18T09:39:50;101386.28;;;6.61;57.24
64967;BME280;51710;38.732;-121.358;2023-02-18T09:42:17;101396.75;;;6.63;56.74
64967;BME280;51710;38.732;-121.358;2023-02-18T09:44:51;101392.56;;;6.60;57.02
64967;BME280;51710;38.732;-121.358;2023-02-18T09:47:37;101392.56;;;6.60;57.03
64967;BME280;51710;38.732;-121.358;2023-02-18T09:52:35;101400.03;;;6.66;56.47
64967;BME280;51710;38.732;-121.358;2023-02-18T09:57:58;101405.66;;;6.62;56.43
64967;BME280;51710;38.732;-121.358;2023-02-18T10:03:00;101406.53;;;6.62;56.83
64967;BME280;51710;38.732;-121.358;2023-02-18T10:05:28;101400.25;;;6.63;57.08
64967;BME280;51710;38.732;-121.358;2023-02-18T10:07:59;101396.16;;;6.59;56.44
64967;BME280;51710;38.732;-121.358;2023-02-18T10:10:40;101395.94;;;6.62;56.34
64967;BME280;51710;38.732;-121.358;2023-02-18T10:13:19;101395.94;;;6.62;56.53
64967;BME280;51710;38.732;-121.358;2023-02-18T10:15:47;101394.22;;;6.61;56.76
64967;BME280;51710;38.732;-121.358;2023-02-18T10:20:51;101386.03;;;6.53;56.46
64967;BME280;51710;38.732;-121.358;2023-02-18T10:23:19;101394.91;;;6.52;56.61
64967;BME280;51710;38.732;-121.358;2023-02-18T10:25:47;101385.63;;;6.47;56.52
64967;BME280;51710;38.732;-121.358;2023-02-18T10:28:18;101398.16;;;6.45;56.35
64967;BME280;51710;38.732;-121.358;2023-02-18T10:31:02;101387.91;;;6.40;56.55
64967;BME280;51710;38.732;-121.358;2023-02-18T10:36:11;101383.78;;;6.36;56.87
64967;BME280;51710;38.732;-121.358;2023-02-18T10:46:44;101365.50;;;6.33;56.82
64967;BME280;51710;38.732;-121.358;2023-02-18T10:49:36;101364.69;;;6.33;56.45
64967;BME280;51710;38.732;-121.358;2023-02-18T10:52:13;101369.88;;;6.34;56.40
64967;BME280;51710;38.732;-121.358;2023-02-18T10:54:50;101371.53;;;6.35;56.94
64967;BME280;51710;38.732;-121.358;2023-02-18T10:57:20;101356.53;;;6.36;56.70
64967;BME280;51710;38.732;-121.358;2023-02-18T11:02:36;101345.09;;;6.35;56.79
64967;BME280;51710;38.732;-121.358;2023-02-18T11:05:17;101337.16;;;6.35;56.91
64967;BME280;51710;38.732;-121.358;2023-02-18T11:07:48;101333.66;;;6.35;57.06
64967;BME280;51710;38.732;-121.358;2023-02-18T11:12:49;101341.94;;;6.30;56.61
64967;BME280;51710;38.732;-121.358;2023-02-18T11:15:22;101335.81;;;6.30;56.85
64967;BME280;51710;38.732;-121.358;2023-02-18T11:17:52;101329.78;;;6.28;56.79
64967;BME280;51710;38.732;-121.358;2023-02-18T11:20:35;101335.44;;;6.23;57.13
64967;BME280;51710;38.732;-121.358;2023-02-18T11:25:33;101339.50;;;6.16;57.21
64967;BME280;51710;38.732;-121.358;2023-02-18T11:30:52;101357.94;;;6.05;56.81
64967;BME280;51710;38.732;-121.358;2023-02-18T11:39:31;101358.97;;;5.79;57.15
64967;BME280;51710;38.732;-121.358;2023-02-18T11:41:45;101363.25;;;5.56;57.70
64967;BME280;51710;38.732;-121.358;2023-02-18T11:44:31;101373.88;;;5.31;58.21
64967;BME280;51710;38.732;-121.358;2023-02-18T11:47:04;101383.19;;;5.12;58.53
64967;BME280;51710;38.732;-121.358;2023-02-18T11:49:33;101374.41;;;4.99;58.75
64967;BME280;51710;38.732;-121.358;2023-02-18T11:57:28;101375.47;;;5.21;58.82
64967;BME280;51710;38.732;-121.358;2023-02-18T11:59:54;101364.16;;;5.32;58.76
64967;BME280;51710;38.732;-121.358;2023-02-18T12:02:35;101359.94;;;5.42;58.66
64967;BME280;51710;38.732;-121.358;2023-02-18T12:05:15;101365.50;;;5.50;58.41
64967;BME280;51710;38.732;-121.358;2023-02-18T12:07:47;101362.63;;;5.53;58.32
64967;BME280;51710;38.732;-121.358;2023-02-18T12:10:26;101367.59;;;5.57;58.37
64967;BME280;51710;38.732;-121.358;2023-02-18T12:13:01;101354.16;;;5.60;58.00
64967;BME280;51710;38.732;-121.358;2023-02-18T12:15:46;101354.06;;;5.62;58.17
64967;BME280;51710;38.732;-121.358;2023-02-18T12:18:28;101351.41;;;5.62;58.19
64967;BME280;51710;38.732;-121.358;2023-02-18T12:21:20;101371.59;;;5.63;57.93
64967;BME280;51710;38.732;-121.358;2023-02-18T12:23:57;101375.94;;;5.64;58.10
64967;BME280;51710;38.732;-121.358;2023-02-18T12:27:00;101362.09;;;5.60;57.91
64967;BME280;51710;38.732;-121.358;2023-02-18T12:32:44;101345.91;;;5.65;58.11
64967;BME280;51710;38.732;-121.358;2023-02-18T12:41:16;101349.78;;;5.72;57.31
64967;BME280;51710;38.732;-121.358;2023-02-18T12:49:22;101352.38;;;5.61;57.38
64967;BME280;51710;38.732;-121.358;2023-02-18T12:52:02;101341.00;;;5.48;57.58
64967;BME280;51710;38.732;-121.358;2023-02-18T12:57:33;101348.63;;;5.40;57.61
64967;BME280;51710;38.732;-121.358;2023-02-18T13:11:29;101355.84;;;4.88;58.59
64967;BME280;51710;38.732;-121.358;2023-02-18T13:14:28;101360.28;;;4.75;58.99
64967;BME280;51710;38.732;-121.358;2023-02-18T13:16:58;101355.22;;;4.72;58.57
64967;BME280;51710;38.732;-121.358;2023-02-18T13:19:33;101356.56;;;4.52;58.62
64967;BME280;51710;38.732;-121.358;2023-02-18T13:22:05;101360.00;;;4.40;59.03
64967;BME280;51710;38.732;-121.358;2023-02-18T13:24:44;101363.16;;;4.32;59.45
64967;BME280;51710;38.732;-121.358;2023-02-18T13:30:17;101366.97;;;4.28;59.65
64967;BME280;51710;38.732;-121.358;2023-02-18T13:35:26;101381.59;;;3.93;60.50
64967;BME280;51710;38.732;-121.358;2023-02-18T13:40:58;101388.47;;;3.41;61.61
64967;BME280;51710;38.732;-121.358;2023-02-18T13:43:31;101391.41;;;3.22;62.03
64967;BME280;51710;38.732;-121.358;2023-02-18T13:46:35;101400.97;;;3.09;62.19
64967;BME280;51710;38.732;-121.358;2023-02-18T13:49:20;101398.53;;;3.06;62.52
64967;BME280;51710;38.732;-121.358;2023-02-18T13:51:50;101392.22;;;3.09;62.91
64967;BME280;51710;38.732;-121.358;2023-02-18T13:54:31;101393.53;;;3.16;62.80
64967;BME280;51710;38.732;-121.358;2023-02-18T13:57:06;101401.91;;;3.22;62.85
64967;BME280;51710;38.732;-121.358;2023-02-18T14:02:55;101416.00;;;3.21;62.84
64967;BME280;51710;38.732;-121.358;2023-02-18T14:05:23;101428.69;;;3.15;62.46
64967;BME280;51710;38.732;-121.358;2023-02-18T14:10:38;101433.94;;;3.15;62.94
64967;BME280;51710;38.732;-121.358;2023-02-18T14:13:23;101432.84;;;3.19;63.16
64967;BME280;51710;38.732;-121.358;2023-02-18T14:15:58;101426.41;;;3.23;63.06
64967;BME280;51710;38.732;-121.358;2023-02-18T14:26:20;101430.00;;;3.22;63.24
64967;BME280;51710;38.732;-121.358;2023-02-18T14:31:29;101441.63;;;3.04;63.54
64967;BME280;51710;38.732;-121.358;2023-02-18T14:39:21;101436.91;;;2.95;63.42
64967;BME280;51710;38.732;-121.358;2023-02-18T14:45:08;101443.88;;;2.96;63.79
64967;BME280;51710;38.732;-121.358;2023-02-18T14:50:12;101443.47;;;2.88;63.60
64967;BME280;51710;38.732;-121.358;2023-02-18T14:52:48;101442.75;;;2.86;63.92
64967;BME280;51710;38.732;-121.358;2023-02-18T14:55:31;101450.78;;;2.83;63.60
64967;BME280;51710;38.732;-121.358;2023-02-18T15:00:49;101446.56;;;2.51;64.33
64967;BME280;51710;38.732;-121.358;2023-02-18T15:03:18;101450.81;;;2.38;64.17
64967;BME280;51710;38.732;-121.358;2023-02-18T15:05:45;101450.75;;;2.23;64.90